sensor_id;sensor_type;location;lat;lon;timestamp;pressure;altitude;pressure_sealevel;temperature;humidity
69836;BME280;57132;51.972;4.450;2022-07-18T00:01:51;102426.41;;;17.04;88.10
69836;BME280;57132;51.972;4.450;2022-07-18T00:04:16;102421.66;;;17.08;87.31
69836;BME280;57132;51.972;4.450;2022-07-18T00:06:42;102419.47;;;17.13;86.83
69836;BME280;57132;51.972;4.450;2022-07-18T00:09:07;102414.06;;;17.13;86.78
69836;BME280;57132;51.972;4.450;2022-07-18T00:11:32;102412.34;;;17.12;86.62
69836;BME280;57132;51.972;4.450;2022-07-18T00:13:58;102411.88;;;17.18;85.90
69836;BME280;57132;51.972;4.450;2022-07-18T00:16:23;102408.97;;;17.21;85.78
69836;BME280;57132;51.972;4.450;2022-07-18T00:18:49;102407.13;;;17.21;85.68
69836;BME280;57132;51.972;4.450;2022-07-18T00:21:15;102403.69;;;17.19;86.42
69836;BME280;57132;51.972;4.450;2022-07-18T00:23:40;102418.19;;;17.18;86.34
69836;BME280;57132;51.972;4.450;2022-07-18T00:26:06;102414.50;;;17.19;86.32
69836;BME280;57132;51.972;4.450;2022-07-18T00:28:31;102404.69;;;17.18;86.23
69836;BME280;57132;51.972;4.450;2022-07-18T00:30:57;102398.66;;;17.15;86.48
69836;BME280;57132;51.972;4.450;2022-07-18T00:33:22;102406.19;;;17.10;87.38
69836;BME280;57132;51.972;4.450;2022-07-18T00:35:48;102395.75;;;17.05;87.77
69836;BME280;57132;51.972;4.450;2022-07-18T00:38:13;102407.66;;;17.03;87.63
69836;BME280;57132;51.972;4.450;2022-07-18T00:40:39;102397.81;;;17.02;87.94
69836;BME280;57132;51.972;4.450;2022-07-18T00:43:04;102397.94;;;17.00;87.72
69836;BME280;57132;51.972;4.450;2022-07-18T00:45:30;102398.78;;;17.01;87.92
69836;BME280;57132;51.972;4.450;2022-07-18T00:47:55;102392.53;;;17.00;87.91
69836;BME280;57132;51.972;4.450;2022-07-18T00:50:22;102404.19;;;17.01;87.92
69836;BME280;57132;51.972;4.450;2022-07-18T00:52:48;102397.06;;;17.00;88.19
69836;BME280;57132;51.972;4.450;2022-07-18T00:55:13;102401.69;;;16.98;87.62
69836;BME280;57132;51.972;4.450;2022-07-18T00:57:40;102396.44;;;16.96;87.45
69836;BME280;57132;51.972;4.450;2022-07-18T01:00:09;102398.50;;;16.92;87.78
69836;BME280;57132;51.972;4.450;2022-07-18T01:02:54;102396.00;;;16.89;87.98
69836;BME280;57132;51.972;4.450;2022-07-18T01:05:20;102397.97;;;16.87;87.71
69836;BME280;57132;51.972;4.450;2022-07-18T01:07:45;102389.13;;;16.85;88.14
69836;BME280;57132;51.972;4.450;2022-07-18T01:10:11;102389.13;;;16.85;88.07
69836;BME280;57132;51.972;4.450;2022-07-18T01:12:36;102385.44;;;16.86;88.13
69836;BME280;57132;51.972;4.450;2022-07-18T01:15:03;102377.13;;;16.89;88.10
69836;BME280;57132;51.972;4.450;2022-07-18T01:17:29;102375.94;;;16.93;87.66
69836;BME280;57132;51.972;4.450;2022-07-18T01:19:54;102383.03;;;16.94;87.79
69836;BME280;57132;51.972;4.450;2022-07-18T01:22:20;102379.59;;;16.92;87.58
69836;BME280;57132;51.972;4.450;2022-07-18T01:24:46;102381.31;;;16.93;87.81
69836;BME280;57132;51.972;4.450;2022-07-18T01:27:19;102392.88;;;16.95;87.59
69836;BME280;57132;51.972;4.450;2022-07-18T01:29:46;102394.81;;;16.93;88.33
69836;BME280;57132;51.972;4.450;2022-07-18T01:32:13;102384.22;;;16.90;89.07
69836;BME280;57132;51.972;4.450;2022-07-18T01:34:39;102382.13;;;16.83;89.37
69836;BME280;57132;51.972;4.450;2022-07-18T01:37:05;102381.56;;;16.78;90.44
69836;BME280;57132;51.972;4.450;2022-07-18T01:39:31;102372.06;;;16.72;90.40
69836;BME280;57132;51.972;4.450;2022-07-18T01:42:02;102374.88;;;16.70;90.35
69836;BME280;57132;51.972;4.450;2022-07-18T01:44:28;102376.06;;;16.66;90.34
69836;BME280;57132;51.972;4.450;2022-07-18T01:46:54;102379.00;;;16.63;90.40
69836;BME280;57132;51.972;4.450;2022-07-18T01:49:20;102376.41;;;16.62;90.14
69836;BME280;57132;51.972;4.450;2022-07-18T01:51:47;102370.28;;;16.60;90.45
69836;BME280;57132;51.972;4.450;2022-07-18T01:54:13;102371.34;;;16.57;91.04
69836;BME280;57132;51.972;4.450;2022-07-18T01:56:39;102369.09;;;16.51;91.68
69836;BME280;57132;51.972;4.450;2022-07-18T01:59:04;102367.69;;;16.45;92.15
69836;BME280;57132;51.972;4.450;2022-07-18T02:01:29;102368.88;;;16.41;92.31
69836;BME280;57132;51.972;4.450;2022-07-18T02:03:55;102367.38;;;16.37;92.56
69836;BME280;57132;51.972;4.450;2022-07-18T02:06:20;102356.81;;;16.34;92.71
69836;BME280;57132;51.972;4.450;2022-07-18T02:08:45;102362.19;;;16.34;93.31
69836;BME280;57132;51.972;4.450;2022-07-18T02:11:11;102353.38;;;16.32;93.63
69836;BME280;57132;51.972;4.450;2022-07-18T02:13:37;102351.63;;;16.31;93.51
69836;BME280;57132;51.972;4.450;2022-07-18T02:16:02;102341.75;;;16.32;93.09
69836;BME280;57132;51.972;4.450;2022-07-18T02:18:28;102341.28;;;16.38;92.15
69836;BME280;57132;51.972;4.450;2022-07-18T02:20:57;102344.41;;;16.44;89.48
69836;BME280;57132;51.972;4.450;2022-07-18T02:23:22;102339.13;;;16.56;87.37
69836;BME280;57132;51.972;4.450;2022-07-18T02:25:48;102334.03;;;16.64;85.92
69836;BME280;57132;51.972;4.450;2022-07-18T02:28:13;102339.53;;;16.75;84.60
69836;BME280;57132;51.972;4.450;2022-07-18T02:30:38;102331.84;;;16.82;83.24
69836;BME280;57132;51.972;4.450;2022-07-18T02:33:04;102329.56;;;16.88;83.03
69836;BME280;57132;51.972;4.450;2022-07-18T02:35:29;102324.91;;;16.90;83.14
69836;BME280;57132;51.972;4.450;2022-07-18T02:37:54;102319.41;;;16.92;82.76
69836;BME280;57132;51.972;4.450;2022-07-18T02:40:20;102325.66;;;16.92;82.68
69836;BME280;57132;51.972;4.450;2022-07-18T02:42:45;102323.19;;;16.89;83.42
69836;BME280;57132;51.972;4.450;2022-07-18T02:45:11;102322.78;;;16.83;84.40
69836;BME280;57132;51.972;4.450;2022-07-18T02:47:36;102327.78;;;16.76;85.49
69836;BME280;57132;51.972;4.450;2022-07-18T02:50:03;102319.34;;;16.68;86.17
69836;BME280;57132;51.972;4.450;2022-07-18T02:52:29;102317.09;;;16.62;86.93
69836;BME280;57132;51.972;4.450;2022-07-18T02:54:54;102319.25;;;16.57;87.22
69836;BME280;57132;51.972;4.450;2022-07-18T02:57:22;102323.28;;;16.51;87.58
69836;BME280;57132;51.972;4.450;2022-07-18T02:59:47;102322.63;;;16.47;87.39
69836;BME280;57132;51.972;4.450;2022-07-18T03:02:12;102317.53;;;16.43;87.92
69836;BME280;57132;51.972;4.450;2022-07-18T03:04:38;102322.31;;;16.39;87.96
69836;BME280;57132;51.972;4.450;2022-07-18T03:07:03;102316.38;;;16.34;87.61
69836;BME280;57132;51.972;4.450;2022-07-18T03:09:28;102315.66;;;16.32;87.81
69836;BME280;57132;51.972;4.450;2022-07-18T03:11:55;102310.25;;;16.32;87.56
69836;BME280;57132;51.972;4.450;2022-07-18T03:14:21;102315.66;;;16.32;87.19
69836;BME280;57132;51.972;4.450;2022-07-18T03:16:46;102307.56;;;16.32;87.04
69836;BME280;57132;51.972;4.450;2022-07-18T03:19:12;102308.63;;;16.30;86.68
69836;BME280;57132;51.972;4.450;2022-07-18T03:21:37;102306.06;;;16.28;86.73
69836;BME280;57132;51.972;4.450;2022-07-18T03:24:03;102302.25;;;16.31;86.50
69836;BME280;57132;51.972;4.450;2022-07-18T03:26:28;102303.88;;;16.33;86.48
69836;BME280;57132;51.972;4.450;2022-07-18T03:28:54;102299.25;;;16.35;86.37
69836;BME280;57132;51.972;4.450;2022-07-18T03:31:19;102291.28;;;16.34;86.57
69836;BME280;57132;51.972;4.450;2022-07-18T03:33:45;102286.94;;;16.31;87.39
69836;BME280;57132;51.972;4.450;2022-07-18T03:36:10;102281.91;;;16.27;87.43
69836;BME280;57132;51.972;4.450;2022-07-18T03:38:36;102299.03;;;16.26;87.58
69836;BME280;57132;51.972;4.450;2022-07-18T03:41:02;102290.09;;;16.25;87.58
69836;BME280;57132;51.972;4.450;2022-07-18T03:43:27;102285.69;;;16.24;87.59
69836;BME280;57132;51.972;4.450;2022-07-18T03:45:53;102275.66;;;16.26;87.51
69836;BME280;57132;51.972;4.450;2022-07-18T03:48:18;102281.81;;;16.28;87.27
69836;BME280;57132;51.972;4.450;2022-07-18T03:50:44;102287.94;;;16.30;87.27
69836;BME280;57132;51.972;4.450;2022-07-18T03:53:09;102279.00;;;16.30;87.07
69836;BME280;57132;51.972;4.450;2022-07-18T03:55:34;102278.13;;;16.29;86.77
69836;BME280;57132;51.972;4.450;2022-07-18T03:58:00;102279.97;;;16.29;86.35
69836;BME280;57132;51.972;4.450;2022-07-18T04:00:25;102272.63;;;16.31;85.91
69836;BME280;57132;51.972;4.450;2022-07-18T04:02:50;102269.06;;;16.30;85.80
69836;BME280;57132;51.972;4.450;2022-07-18T04:05:16;102270.78;;;16.31;85.74
69836;BME280;57132;51.972;4.450;2022-07-18T04:07:42;102269.94;;;16.31;86.18
69836;BME280;57132;51.972;4.450;2022-07-18T04:10:09;102266.59;;;16.27;87.33
69836;BME280;57132;51.972;4.450;2022-07-18T04:12:44;102268.44;;;16.27;87.13
69836;BME280;57132;51.972;4.450;2022-07-18T04:15:09;102268.09;;;16.31;86.29
69836;BME280;57132;51.972;4.450;2022-07-18T04:17:35;102279.41;;;16.36;85.74
69836;BME280;57132;51.972;4.450;2022-07-18T04:20:00;102264.63;;;16.42;85.23
69836;BME280;57132;51.972;4.450;2022-07-18T04:22:26;102269.59;;;16.48;85.06
69836;BME280;57132;51.972;4.450;2022-07-18T04:24:51;102265.56;;;16.54;84.54
69836;BME280;57132;51.972;4.450;2022-07-18T04:27:16;102266.63;;;16.64;84.65
69836;BME280;57132;51.972;4.450;2022-07-18T04:29:41;102269.53;;;16.74;84.61
69836;BME280;57132;51.972;4.450;2022-07-18T04:32:07;102270.44;;;16.85;84.35
69836;BME280;57132;51.972;4.450;2022-07-18T04:34:32;102256.16;;;16.96;83.96
69836;BME280;57132;51.972;4.450;2022-07-18T04:36:58;102262.47;;;17.08;83.71
69836;BME280;57132;51.972;4.450;2022-07-18T04:39:23;102259.06;;;17.17;83.25
69836;BME280;57132;51.972;4.450;2022-07-18T04:41:48;102252.84;;;17.28;84.05
69836;BME280;57132;51.972;4.450;2022-07-18T04:44:14;102253.75;;;17.39;84.04
69836;BME280;57132;51.972;4.450;2022-07-18T04:46:39;102261.75;;;17.52;82.80
69836;BME280;57132;51.972;4.450;2022-07-18T04:49:04;102271.72;;;17.63;81.77
69836;BME280;57132;51.972;4.450;2022-07-18T04:51:30;102272.84;;;17.72;82.61
69836;BME280;57132;51.972;4.450;2022-07-18T04:53:55;102277.25;;;17.73;81.35
69836;BME280;57132;51.972;4.450;2022-07-18T04:56:21;102276.19;;;17.75;81.15
69836;BME280;57132;51.972;4.450;2022-07-18T04:58:47;102275.97;;;17.78;80.33
69836;BME280;57132;51.972;4.450;2022-07-18T05:01:13;102274.47;;;17.85;81.71
69836;BME280;57132;51.972;4.450;2022-07-18T05:03:38;102279.44;;;18.03;81.23
69836;BME280;57132;51.972;4.450;2022-07-18T05:06:04;102278.22;;;18.18;80.54
69836;BME280;57132;51.972;4.450;2022-07-18T05:08:29;102290.50;;;18.33;77.47
69836;BME280;57132;51.972;4.450;2022-07-18T05:10:55;102292.53;;;18.52;77.01
69836;BME280;57132;51.972;4.450;2022-07-18T05:13:20;102284.03;;;18.68;76.21
69836;BME280;57132;51.972;4.450;2022-07-18T05:15:46;102285.16;;;18.77;75.22
69836;BME280;57132;51.972;4.450;2022-07-18T05:18:11;102285.63;;;18.93;75.01
69836;BME280;57132;51.972;4.450;2022-07-18T05:20:37;102281.88;;;19.05;75.64
69836;BME280;57132;51.972;4.450;2022-07-18T05:23:02;102280.38;;;19.12;74.39
69836;BME280;57132;51.972;4.450;2022-07-18T05:25:28;102268.88;;;19.20;73.89
69836;BME280;57132;51.972;4.450;2022-07-18T05:27:53;102276.91;;;19.42;76.02
69836;BME280;57132;51.972;4.450;2022-07-18T05:30:19;102281.44;;;19.74;74.90
69836;BME280;57132;51.972;4.450;2022-07-18T05:32:45;102278.94;;;20.13;73.28
69836;BME280;57132;51.972;4.450;2022-07-18T05:35:12;102284.19;;;20.45;69.94
69836;BME280;57132;51.972;4.450;2022-07-18T05:37:38;102275.88;;;20.77;69.68
69836;BME280;57132;51.972;4.450;2022-07-18T05:40:05;102274.31;;;21.13;68.48
69836;BME280;57132;51.972;4.450;2022-07-18T05:42:31;102273.63;;;21.31;66.45
69836;BME280;57132;51.972;4.450;2022-07-18T05:44:57;102269.19;;;21.49;65.28
69836;BME280;57132;51.972;4.450;2022-07-18T05:47:22;102275.06;;;21.54;65.16
69836;BME280;57132;51.972;4.450;2022-07-18T05:49:48;102271.56;;;21.81;64.41
69836;BME280;57132;51.972;4.450;2022-07-18T05:52:13;102266.69;;;21.85;63.90
69836;BME280;57132;51.972;4.450;2022-07-18T05:54:38;102261.13;;;22.24;61.84
69836;BME280;57132;51.972;4.450;2022-07-18T05:57:04;102258.97;;;22.27;62.88
69836;BME280;57132;51.972;4.450;2022-07-18T05:59:29;102250.06;;;22.53;62.66
69836;BME280;57132;51.972;4.450;2022-07-18T06:01:55;102254.47;;;22.64;60.71
69836;BME280;57132;51.972;4.450;2022-07-18T06:04:20;102251.75;;;22.64;59.89
69836;BME280;57132;51.972;4.450;2022-07-18T06:06:46;102260.06;;;22.80;60.69
69836;BME280;57132;51.972;4.450;2022-07-18T06:09:13;102255.69;;;23.15;57.15
69836;BME280;57132;51.972;4.450;2022-07-18T06:11:39;102262.72;;;23.61;53.97
69836;BME280;57132;51.972;4.450;2022-07-18T06:14:04;102255.97;;;23.99;53.48
69836;BME280;57132;51.972;4.450;2022-07-18T06:16:30;102248.72;;;24.50;52.64
69836;BME280;57132;51.972;4.450;2022-07-18T06:18:56;102259.38;;;24.78;49.25
69836;BME280;57132;51.972;4.450;2022-07-18T06:21:22;102251.75;;;25.14;49.66
69836;BME280;57132;51.972;4.450;2022-07-18T06:23:49;102253.28;;;25.58;49.30
69836;BME280;57132;51.972;4.450;2022-07-18T06:26:14;102252.41;;;25.90;48.66
69836;BME280;57132;51.972;4.450;2022-07-18T06:28:40;102246.59;;;25.85;47.28
69836;BME280;57132;51.972;4.450;2022-07-18T06:31:05;102242.84;;;25.61;45.76
69836;BME280;57132;51.972;4.450;2022-07-18T06:33:30;102243.34;;;25.65;45.66
69836;BME280;57132;51.972;4.450;2022-07-18T06:35:56;102251.75;;;25.63;43.44
69836;BME280;57132;51.972;4.450;2022-07-18T06:38:22;102253.78;;;25.61;44.18
69836;BME280;57132;51.972;4.450;2022-07-18T06:40:47;102245.06;;;25.82;42.38
69836;BME280;57132;51.972;4.450;2022-07-18T06:43:13;102247.81;;;25.82;40.43
69836;BME280;57132;51.972;4.450;2022-07-18T06:45:44;102259.47;;;26.23;42.30
69836;BME280;57132;51.972;4.450;2022-07-18T06:48:10;102255.13;;;26.37;42.00
69836;BME280;57132;51.972;4.450;2022-07-18T06:50:35;102259.13;;;26.27;40.47
69836;BME280;57132;51.972;4.450;2022-07-18T06:53:00;102256.06;;;26.21;43.46
69836;BME280;57132;51.972;4.450;2022-07-18T06:55:26;102254.09;;;25.91;40.43
69836;BME280;57132;51.972;4.450;2022-07-18T06:57:51;102254.97;;;25.75;40.25
69836;BME280;57132;51.972;4.450;2022-07-18T07:00:16;102257.84;;;26.06;40.82
69836;BME280;57132;51.972;4.450;2022-07-18T07:02:44;102251.59;;;26.20;40.11
69836;BME280;57132;51.972;4.450;2022-07-18T07:05:10;102250.81;;;26.43;40.48
69836;BME280;57132;51.972;4.450;2022-07-18T07:07:36;102243.44;;;27.06;41.44
69836;BME280;57132;51.972;4.450;2022-07-18T07:10:02;102242.41;;;27.30;38.43
69836;BME280;57132;51.972;4.450;2022-07-18T07:12:28;102245.56;;;28.09;36.87
69836;BME280;57132;51.972;4.450;2022-07-18T07:14:53;102248.47;;;28.73;35.82
69836;BME280;57132;51.972;4.450;2022-07-18T07:17:18;102239.94;;;29.04;34.04
69836;BME280;57132;51.972;4.450;2022-07-18T07:19:44;102252.50;;;29.13;34.26
69836;BME280;57132;51.972;4.450;2022-07-18T07:22:09;102259.31;;;29.17;32.65
69836;BME280;57132;51.972;4.450;2022-07-18T07:24:35;102259.44;;;29.09;32.56
69836;BME280;57132;51.972;4.450;2022-07-18T07:27:03;102249.72;;;29.07;33.58
69836;BME280;57132;51.972;4.450;2022-07-18T07:29:29;102250.03;;;28.82;33.70
69836;BME280;57132;51.972;4.450;2022-07-18T07:31:54;102245.31;;;28.91;33.44
69836;BME280;57132;51.972;4.450;2022-07-18T07:34:20;102243.94;;;28.65;34.08
69836;BME280;57132;51.972;4.450;2022-07-18T07:36:45;102245.53;;;27.94;34.05
69836;BME280;57132;51.972;4.450;2022-07-18T07:39:11;102245.69;;;27.48;35.45
69836;BME280;57132;51.972;4.450;2022-07-18T07:41:36;102248.06;;;27.05;35.88
69836;BME280;57132;51.972;4.450;2022-07-18T07:44:02;102248.22;;;27.04;36.56
69836;BME280;57132;51.972;4.450;2022-07-18T07:46:27;102239.44;;;26.62;38.01
69836;BME280;57132;51.972;4.450;2022-07-18T07:48:53;102242.69;;;26.66;38.39
69836;BME280;57132;51.972;4.450;2022-07-18T07:51:18;102241.94;;;26.49;36.86
69836;BME280;57132;51.972;4.450;2022-07-18T07:53:43;102240.25;;;26.32;37.69
69836;BME280;57132;51.972;4.450;2022-07-18T07:56:09;102236.63;;;26.47;38.08
69836;BME280;57132;51.972;4.450;2022-07-18T07:58:35;102233.84;;;26.56;37.76
69836;BME280;57132;51.972;4.450;2022-07-18T08:01:01;102227.28;;;26.65;38.24
69836;BME280;57132;51.972;4.450;2022-07-18T08:03:26;102236.22;;;26.59;38.35
69836;BME280;57132;51.972;4.450;2022-07-18T08:05:52;102234.53;;;26.58;38.27
69836;BME280;57132;51.972;4.450;2022-07-18T08:08:17;102231.81;;;26.81;38.05
69836;BME280;57132;51.972;4.450;2022-07-18T08:10:43;102233.56;;;26.73;38.31
69836;BME280;57132;51.972;4.450;2022-07-18T08:13:10;102236.91;;;26.84;38.60
69836;BME280;57132;51.972;4.450;2022-07-18T08:15:35;102230.63;;;26.75;37.83
69836;BME280;57132;51.972;4.450;2022-07-18T08:18:01;102225.09;;;26.83;40.17
69836;BME280;57132;51.972;4.450;2022-07-18T08:20:26;102222.22;;;27.00;41.62
69836;BME280;57132;51.972;4.450;2022-07-18T08:25:18;102230.75;;;27.13;38.33
69836;BME280;57132;51.972;4.450;2022-07-18T08:27:44;102223.72;;;27.10;37.58
69836;BME280;57132;51.972;4.450;2022-07-18T08:30:09;102226.72;;;26.92;38.95
69836;BME280;57132;51.972;4.450;2022-07-18T08:32:35;102235.22;;;26.83;39.05
69836;BME280;57132;51.972;4.450;2022-07-18T08:35:00;102228.19;;;27.03;39.77
69836;BME280;57132;51.972;4.450;2022-07-18T08:37:25;102230.91;;;27.11;38.56
69836;BME280;57132;51.972;4.450;2022-07-18T08:39:51;102231.00;;;26.95;39.13
69836;BME280;57132;51.972;4.450;2022-07-18T08:42:18;102229.09;;;26.95;37.20
69836;BME280;57132;51.972;4.450;2022-07-18T08:44:46;102225.59;;;26.87;37.39
69836;BME280;57132;51.972;4.450;2022-07-18T08:47:13;102221.81;;;26.65;38.22
69836;BME280;57132;51.972;4.450;2022-07-18T08:49:40;102225.75;;;26.62;38.47
69836;BME280;57132;51.972;4.450;2022-07-18T08:52:06;102230.19;;;26.63;38.11
69836;BME280;57132;51.972;4.450;2022-07-18T08:54:31;102225.41;;;26.65;38.98
69836;BME280;57132;51.972;4.450;2022-07-18T08:56:56;102224.25;;;26.83;39.72
69836;BME280;57132;51.972;4.450;2022-07-18T08:59:22;102229.19;;;26.87;38.25
69836;BME280;57132;51.972;4.450;2022-07-18T09:01:47;102231.19;;;26.93;39.26
69836;BME280;57132;51.972;4.450;2022-07-18T09:04:36;102230.34;;;27.16;39.22
69836;BME280;57132;51.972;4.450;2022-07-18T09:07:02;102233.63;;;27.11;37.37
69836;BME280;57132;51.972;4.450;2022-07-18T09:09:34;102228.16;;;27.11;38.64
69836;BME280;57132;51.972;4.450;2022-07-18T09:12:03;102230.28;;;27.24;38.38
69836;BME280;57132;51.972;4.450;2022-07-18T09:14:39;102231.38;;;27.38;40.22
69836;BME280;57132;51.972;4.450;2022-07-18T09:17:18;102225.47;;;27.64;37.97
69836;BME280;57132;51.972;4.450;2022-07-18T09:20:06;102224.22;;;27.66;37.60
69836;BME280;57132;51.972;4.450;2022-07-18T09:22:35;102225.63;;;27.62;38.32
69836;BME280;57132;51.972;4.450;2022-07-18T09:27:38;102214.22;;;27.74;37.51
69836;BME280;57132;51.972;4.450;2022-07-18T09:35:24;102217.94;;;27.96;35.26
69836;BME280;57132;51.972;4.450;2022-07-18T09:38:06;102214.13;;;27.97;35.61
69836;BME280;57132;51.972;4.450;2022-07-18T09:40:41;102214.31;;;27.95;35.66
69836;BME280;57132;51.972;4.450;2022-07-18T09:43:09;102207.47;;;28.21;34.77
69836;BME280;57132;51.972;4.450;2022-07-18T09:45:37;102204.97;;;28.55;34.26
69836;BME280;57132;51.972;4.450;2022-07-18T09:48:11;102209.91;;;29.03;34.72
69836;BME280;57132;51.972;4.450;2022-07-18T09:50:39;102209.13;;;29.37;32.66
69836;BME280;57132;51.972;4.450;2022-07-18T09:53:39;102212.34;;;29.40;34.12
69836;BME280;57132;51.972;4.450;2022-07-18T09:56:12;102210.69;;;29.46;34.84
69836;BME280;57132;51.972;4.450;2022-07-18T09:58:49;102208.53;;;29.41;32.26
69836;BME280;57132;51.972;4.450;2022-07-18T10:01:15;102208.97;;;29.45;33.49
69836;BME280;57132;51.972;4.450;2022-07-18T10:03:40;102204.53;;;29.44;33.70
69836;BME280;57132;51.972;4.450;2022-07-18T10:06:06;102202.28;;;29.54;34.70
69836;BME280;57132;51.972;4.450;2022-07-18T10:08:33;102207.00;;;29.60;34.54
69836;BME280;57132;51.972;4.450;2022-07-18T10:11:00;102202.69;;;29.51;33.15
69836;BME280;57132;51.972;4.450;2022-07-18T10:13:28;102205.59;;;29.43;32.33
69836;BME280;57132;51.972;4.450;2022-07-18T10:15:54;102204.47;;;29.37;32.32
69836;BME280;57132;51.972;4.450;2022-07-18T10:18:23;102199.25;;;29.43;32.44
69836;BME280;57132;51.972;4.450;2022-07-18T10:21:10;102197.34;;;29.43;30.78
69836;BME280;57132;51.972;4.450;2022-07-18T10:23:46;102199.25;;;29.43;32.98
69836;BME280;57132;51.972;4.450;2022-07-18T10:31:29;102198.03;;;29.52;30.80
69836;BME280;57132;51.972;4.450;2022-07-18T10:36:33;102199.81;;;29.59;28.65
69836;BME280;57132;51.972;4.450;2022-07-18T10:39:15;102195.72;;;29.55;27.33
69836;BME280;57132;51.972;4.450;2022-07-18T11:00:03;102192.50;;;29.80;28.08
69836;BME280;57132;51.972;4.450;2022-07-18T11:02:47;102192.13;;;29.83;28.87
69836;BME280;57132;51.972;4.450;2022-07-18T11:16:01;102183.09;;;30.02;30.67
69836;BME280;57132;51.972;4.450;2022-07-18T11:18:31;102179.31;;;30.10;31.99
69836;BME280;57132;51.972;4.450;2022-07-18T11:20:56;102187.00;;;30.21;30.45
69836;BME280;57132;51.972;4.450;2022-07-18T11:23:27;102183.72;;;30.04;29.14
69836;BME280;57132;51.972;4.450;2022-07-18T11:25:55;102180.97;;;30.04;29.73
69836;BME280;57132;51.972;4.450;2022-07-18T11:28:21;102178.00;;;29.99;28.92
69836;BME280;57132;51.972;4.450;2022-07-18T11:31:08;102175.72;;;30.09;28.77
69836;BME280;57132;51.972;4.450;2022-07-18T11:33:37;102171.75;;;30.19;30.31
69836;BME280;57132;51.972;4.450;2022-07-18T11:38:28;102171.28;;;30.15;27.35
69836;BME280;57132;51.972;4.450;2022-07-18T11:40:53;102171.44;;;30.00;27.77
69836;BME280;57132;51.972;4.450;2022-07-18T11:43:21;102163.25;;;30.13;26.17
69836;BME280;57132;51.972;4.450;2022-07-18T11:45:46;102163.28;;;30.20;28.10
69836;BME280;57132;51.972;4.450;2022-07-18T11:48:20;102158.25;;;30.30;27.09
69836;BME280;57132;51.972;4.450;2022-07-18T11:50:45;102154.63;;;30.36;27.75
69836;BME280;57132;51.972;4.450;2022-07-18T11:53:11;102155.06;;;30.40;28.29
69836;BME280;57132;51.972;4.450;2022-07-18T11:55:37;102157.63;;;30.48;29.30
69836;BME280;57132;51.972;4.450;2022-07-18T11:58:13;102151.28;;;30.54;26.31
69836;BME280;57132;51.972;4.450;2022-07-18T12:00:40;102147.94;;;30.66;25.81
69836;BME280;57132;51.972;4.450;2022-07-18T12:03:26;102156.44;;;30.77;26.25
69836;BME280;57132;51.972;4.450;2022-07-18T12:05:53;102151.34;;;30.88;24.94
69836;BME280;57132;51.972;4.450;2022-07-18T12:08:35;102147.56;;;30.89;24.83
69836;BME280;57132;51.972;4.450;2022-07-18T12:11:18;102138.84;;;30.85;25.69
69836;BME280;57132;51.972;4.450;2022-07-18T12:13:53;102145.84;;;30.81;24.68
69836;BME280;57132;51.972;4.450;2022-07-18T12:21:52;102139.28;;;30.82;24.31
69836;BME280;57132;51.972;4.450;2022-07-18T12:32:25;102144.31;;;30.72;23.76
69836;BME280;57132;51.972;4.450;2022-07-18T12:35:00;102139.91;;;30.77;25.13
69836;BME280;57132;51.972;4.450;2022-07-18T12:37:27;102132.91;;;30.81;25.47
69836;BME280;57132;51.972;4.450;2022-07-18T12:40:04;102134.19;;;30.85;24.58
69836;BME280;57132;51.972;4.450;2022-07-18T12:42:36;102133.53;;;30.90;23.52
69836;BME280;57132;51.972;4.450;2022-07-18T12:45:03;102126.97;;;30.91;23.92
69836;BME280;57132;51.972;4.450;2022-07-18T12:47:28;102126.75;;;30.86;23.70
69836;BME280;57132;51.972;4.450;2022-07-18T12:49:54;102127.81;;;30.92;24.24
69836;BME280;57132;51.972;4.450;2022-07-18T12:52:20;102121.22;;;30.99;25.36
69836;BME280;57132;51.972;4.450;2022-07-18T12:54:46;102125.25;;;31.03;24.86
69836;BME280;57132;51.972;4.450;2022-07-18T12:57:12;102118.69;;;31.04;24.88
69836;BME280;57132;51.972;4.450;2022-07-18T12:59:38;102113.38;;;31.03;24.07
69836;BME280;57132;51.972;4.450;2022-07-18T13:02:03;102113.38;;;31.03;23.84
69836;BME280;57132;51.972;4.450;2022-07-18T13:04:29;102111.47;;;30.90;24.57
69836;BME280;57132;51.972;4.450;2022-07-18T13:06:54;102112.75;;;30.94;23.60
69836;BME280;57132;51.972;4.450;2022-07-18T13:09:20;102103.84;;;30.85;24.10
69836;BME280;57132;51.972;4.450;2022-07-18T13:11:47;102107.22;;;30.88;24.07
69836;BME280;57132;51.972;4.450;2022-07-18T13:14:16;102105.53;;;31.00;25.41
69836;BME280;57132;51.972;4.450;2022-07-18T13:16:43;102101.28;;;30.91;24.66
69836;BME280;57132;51.972;4.450;2022-07-18T13:19:10;102097.91;;;30.82;24.63
69836;BME280;57132;51.972;4.450;2022-07-18T13:21:36;102092.41;;;30.82;25.24
69836;BME280;57132;51.972;4.450;2022-07-18T13:24:01;102093.88;;;30.78;24.56
69836;BME280;57132;51.972;4.450;2022-07-18T13:26:26;102091.31;;;30.70;26.36
69836;BME280;57132;51.972;4.450;2022-07-18T13:28:52;102098.72;;;30.56;24.89
69836;BME280;57132;51.972;4.450;2022-07-18T13:31:17;102103.38;;;30.42;25.18
69836;BME280;57132;51.972;4.450;2022-07-18T13:33:43;102091.28;;;30.43;25.19
69836;BME280;57132;51.972;4.450;2022-07-18T13:36:08;102093.22;;;30.49;25.87
69836;BME280;57132;51.972;4.450;2022-07-18T13:38:33;102095.97;;;30.62;26.54
69836;BME280;57132;51.972;4.450;2022-07-18T13:40:59;102091.50;;;30.68;26.03
69836;BME280;57132;51.972;4.450;2022-07-18T13:43:24;102088.31;;;30.65;25.55
69836;BME280;57132;51.972;4.450;2022-07-18T13:45:49;102088.97;;;30.60;26.00
69836;BME280;57132;51.972;4.450;2022-07-18T13:48:15;102079.22;;;30.51;26.07
69836;BME280;57132;51.972;4.450;2022-07-18T13:50:40;102078.16;;;30.45;26.87
69836;BME280;57132;51.972;4.450;2022-07-18T13:53:06;102075.63;;;30.50;27.14